Time;durP1;ratioP1;P1;durP2;ratioP2;P2;SDS_P1;SDS_P2;PMS_P1;PMS_P2;Temp;Humidity;BMP_temperature;BMP_pressure;BME280_temperature;BME280_humidity;BME280_pressure;Samples;Min_cycle;Max_cycle;Signal;HPM_P1;HPM_P2
2022/08/27 00:02:24;;;;;;;;;3.00;3.00;;;;;23.42;47.50;101154.53;5092725;27;45272;-68
2022/08/27 00:04:49;;;;;;;;;3.00;3.00;;;;;23.30;47.73;101142.94;5093051;28;45176;-68
2022/08/27 00:07:15;;;;;;;;;1.33;1.33;;;;;23.34;47.68;101149.22;5092523;28;53897;-67
2022/08/27 00:09:41;;;;;;;;;4.00;3.00;;;;;23.35;47.96;101151.91;5092714;28;45189;-68
2022/08/27 00:12:08;;;;;;;;;2.00;1.67;;;;;23.35;47.93;101153.75;5088833;27;45452;-68
2022/08/27 00:14:34;;;;;;;;;4.00;2.00;;;;;23.22;47.74;101127.66;5089205;28;45382;-69
2022/08/27 00:17:00;;;;;;;;;4.33;3.33;;;;;23.22;47.91;101135.84;5074688;28;45539;-67
2022/08/27 00:19:25;;;;;;;;;6.33;5.33;;;;;23.26;48.26;101153.94;5072666;27;45575;-67
2022/08/27 00:21:51;;;;;;;;;6.00;4.33;;;;;23.22;48.19;101155.81;5079915;28;45537;-68
2022/08/27 00:24:16;;;;;;;;;3.00;3.00;;;;;23.11;48.02;101130.59;5079004;28;45463;-68
2022/08/27 00:26:41;;;;;;;;;2.00;2.00;;;;;23.21;48.00;101150.41;5076913;28;57634;-68
2022/08/27 00:29:07;;;;;;;;;3.67;2.33;;;;;23.21;48.16;101150.41;5089226;28;45118;-68
2022/08/27 00:31:33;;;;;;;;;4.00;4.00;;;;;22.99;48.13;101116.22;5082865;28;45590;-68
2022/08/27 00:33:58;;;;;;;;;2.00;2.00;;;;;23.18;48.07;101144.09;5069789;28;45486;-68
2022/08/27 00:36:24;;;;;;;;;3.33;2.00;;;;;23.15;48.32;101151.44;5082759;27;45616;-67
2022/08/27 00:38:49;;;;;;;;;5.67;4.00;;;;;23.14;48.36;101157.78;5092205;27;44972;-68
2022/08/27 00:41:16;;;;;;;;;2.33;2.33;;;;;23.10;48.32;101145.13;5084912;28;45409;-68
2022/08/27 00:43:53;;;;;;;;;2.33;2.33;;;;;23.11;48.43;101156.00;5088607;27;45258;-68
2022/08/27 00:46:40;;;;;;;;;3.67;3.00;;;;;22.98;48.57;101149.88;5092129;27;45011;-68
2022/08/27 00:49:14;;;;;;;;;1.00;1.00;;;;;22.94;48.53;101150.84;5084633;27;45403;-67
2022/08/27 00:51:41;;;;;;;;;3.67;1.67;;;;;22.92;48.83;101152.72;5090321;27;45424;-68
2022/08/27 00:54:08;;;;;;;;;4.00;1.33;;;;;22.91;48.92;101150.91;5091528;27;45138;-69
2022/08/27 00:56:43;;;;;;;;;4.00;3.00;;;;;22.89;48.88;101155.50;5092521;27;45187;-68
2022/08/27 00:59:09;;;;;;;;;1.33;1.33;;;;;22.86;48.98;101147.38;5092208;27;45144;-67
2022/08/27 01:02:17;;;;;;;;;2.00;2.00;;;;;22.86;49.00;101149.19;5090752;27;45174;-68
2022/08/27 01:04:21;;;;;;;;;3.00;3.00;;;;;22.83;49.15;101144.69;5089791;27;45138;-68
2022/08/27 01:06:46;;;;;;;;;0.33;0.33;;;;;22.84;49.12;101145.63;5092169;28;45216;-68
2022/08/27 01:09:16;;;;;;;;;2.00;2.00;;;;;22.61;49.17;101117.84;5091620;27;44984;-67
2022/08/27 01:11:43;;;;;;;;;2.00;1.67;;;;;22.61;49.25;101123.28;5091487;27;45151;-69
2022/08/27 01:14:09;;;;;;;;;1.00;1.00;;;;;22.75;49.45;101153.03;5092584;28;45026;-69
2022/08/27 01:16:39;;;;;;;;;0.67;0.67;;;;;22.75;49.46;101153.03;5091737;28;45571;-69
2022/08/27 01:19:08;;;;;;;;;2.00;2.00;;;;;22.73;49.39;101152.13;5092320;28;44991;-68
2022/08/27 01:22:23;;;;;;;;;3.00;2.00;;;;;22.62;49.66;101143.28;5092316;28;45237;-68
2022/08/27 01:24:51;;;;;;;;;1.00;1.00;;;;;22.53;49.60;101130.69;5048097;28;45189;-68
2022/08/27 01:27:20;;;;;;;;;2.33;2.33;;;;;22.67;49.68;101159.50;5085838;27;45746;-68
2022/08/27 01:29:46;;;;;;;;;3.00;2.00;;;;;22.64;49.58;101149.59;5089551;27;44923;-69
2022/08/27 01:32:19;;;;;;;;;3.33;1.67;;;;;22.43;49.78;101113.59;5090576;28;45205;-68
2022/08/27 01:34:46;;;;;;;;;4.33;2.00;;;;;22.63;49.60;101151.38;5090251;27;45270;-68
2022/08/27 01:37:12;;;;;;;;;2.00;2.00;;;;;22.64;49.69;101147.75;5089370;28;46750;-68
2022/08/27 01:39:39;;;;;;;;;5.67;1.00;;;;;22.46;49.58;101109.94;5090425;28;45103;-68
2022/08/27 01:42:21;;;;;;;;;1.00;1.00;;;;;22.58;49.76;101136.97;5091016;28;45124;-68
2022/08/27 01:44:54;;;;;;;;;1.00;0.67;;;;;22.38;49.98;101104.63;5084859;28;45179;-68
2022/08/27 01:47:21;;;;;;;;;1.00;1.00;;;;;22.47;50.11;101128.06;5091336;27;45612;-67
2022/08/27 01:49:47;;;;;;;;;2.00;2.00;;;;;22.35;49.98;101117.41;5092444;28;45192;-68
2022/08/27 01:52:14;;;;;;;;;3.00;3.00;;;;;22.53;50.08;101152.47;5091069;28;44989;-69
2022/08/27 01:54:39;;;;;;;;;2.00;2.00;;;;;22.46;50.05;101120.84;5090325;27;45102;-68
2022/08/27 01:57:05;;;;;;;;;3.00;1.00;;;;;22.57;50.08;101134.25;5090906;27;45162;-68
2022/08/27 01:59:31;;;;;;;;;4.33;3.00;;;;;22.59;49.81;101135.16;5090080;28;45371;-67
2022/08/27 02:01:56;;;;;;;;;2.67;2.33;;;;;22.57;49.93;101128.81;5088898;28;45213;-67
2022/08/27 02:04:22;;;;;;;;;1.00;1.00;;;;;22.62;49.47;101137.84;5090919;28;45054;-68
2022/08/27 02:06:48;;;;;;;;;2.00;2.00;;;;;22.49;49.96;101109.91;5079369;27;45417;-67
2022/08/27 02:09:13;;;;;;;;;5.00;1.00;;;;;22.63;49.69;101129.59;5078563;28;45282;-68
2022/08/27 02:11:38;;;;;;;;;2.00;2.00;;;;;22.62;49.80;101133.28;5084735;28;45249;-67
2022/08/27 02:14:04;;;;;;;;;3.33;2.00;;;;;22.62;49.55;101135.09;5080774;28;45277;-68
2022/08/27 02:16:31;;;;;;;;;2.00;2.00;;;;;22.41;49.83;101099.13;5086860;28;46003;-68
2022/08/27 02:18:57;;;;;;;;;3.00;2.00;;;;;22.40;49.91;101102.78;5085354;27;45558;-68
2022/08/27 02:21:22;;;;;;;;;3.33;2.00;;;;;22.50;50.01;101122.56;5083457;27;45524;-68
2022/08/27 02:23:48;;;;;;;;;5.00;1.33;;;;;22.49;49.68;101115.34;5077874;28;45530;-68
2022/08/27 02:26:13;;;;;;;;;2.67;2.33;;;;;22.59;49.82;101132.44;5087339;28;55715;-68
2022/08/27 02:28:38;;;;;;;;;1.00;1.00;;;;;22.58;49.74;101136.97;5086196;28;48728;-68
2022/08/27 02:31:04;;;;;;;;;3.00;3.00;;;;;22.58;49.76;101127.91;5084254;27;45413;-67
2022/08/27 02:33:31;;;;;;;;;4.00;1.00;;;;;22.42;49.90;101117.28;5088533;27;44983;-68
2022/08/27 02:35:57;;;;;;;;;2.00;2.00;;;;;22.57;49.44;101124.28;5088548;28;45203;-68
2022/08/27 02:38:23;;;;;;;;;5.00;2.67;;;;;22.49;49.78;101115.34;5091681;28;45151;-68
2022/08/27 02:40:48;;;;;;;;;3.00;1.00;;;;;22.49;49.56;101123.53;5092337;27;45529;-69
2022/08/27 02:43:14;;;;;;;;;3.00;1.00;;;;;22.42;49.85;101108.19;5088744;28;45364;-67
2022/08/27 02:45:39;;;;;;;;;1.67;1.00;;;;;22.39;49.90;101105.50;5092491;28;45736;-69
2022/08/27 02:48:06;;;;;;;;;1.33;1.33;;;;;22.50;50.04;101128.03;5091456;27;45298;-68
2022/08/27 02:50:32;;;;;;;;;1.67;1.67;;;;;22.20;50.28;101075.84;5088987;27;45410;-68
2022/08/27 02:53:01;;;;;;;;;2.33;2.00;;;;;22.49;49.99;101123.53;5088752;27;45001;-68
2022/08/27 02:55:27;;;;;;;;;2.33;2.33;;;;;22.35;50.18;101107.41;5089211;27;45642;-68
2022/08/27 02:57:53;;;;;;;;;1.00;1.00;;;;;22.45;49.89;101119.97;5091341;28;45034;-69
2022/08/27 03:00:20;;;;;;;;;2.00;2.00;;;;;22.47;49.89;101124.47;5091401;27;45117;-68
2022/08/27 03:02:46;;;;;;;;;5.00;3.33;;;;;22.47;50.14;101128.06;5089259;28;45263;-68
2022/08/27 03:05:12;;;;;;;;;2.33;2.00;;;;;22.47;50.50;101122.63;5090236;28;47806;-68
2022/08/27 03:07:39;;;;;;;;;2.00;2.00;;;;;22.32;50.07;101096.56;5094317;28;45137;-68
2022/08/27 03:10:05;;;;;;;;;2.67;2.67;;;;;22.21;50.00;101077.66;5092340;27;45197;-68
2022/08/27 03:12:30;;;;;;;;;2.33;1.33;;;;;;;;5091820;28;45222;-68
2022/08/27 03:14:56;;;;;;;;;2.00;2.00;;;;;22.25;50.33;101111.16;5090947;28;45238;-67
2022/08/27 03:20:11;;;;;;;;;3.00;3.00;;;;;22.18;50.37;101096.75;5090984;27;45058;-67
2022/08/27 03:22:37;;;;;;;;;8.00;7.33;;;;;22.12;50.46;101090.53;5086450;28;45438;-68
2022/08/27 03:25:03;;;;;;;;;2.67;1.33;;;;;22.25;50.59;101117.50;5091706;27;45632;-67
2022/08/27 03:27:29;;;;;;;;;2.00;2.00;;;;;22.17;50.45;101110.38;5092230;27;45035;-67
2022/08/27 03:29:54;;;;;;;;;2.00;2.00;;;;;22.17;50.68;101118.56;5091969;28;45093;-68
2022/08/27 03:32:19;;;;;;;;;1.00;1.00;;;;;22.15;50.78;101106.81;5092063;28;45034;-68
2022/08/27 03:34:45;;;;;;;;;2.00;2.00;;;;;22.14;50.69;101102.28;5089489;27;45547;-67
2022/08/27 03:37:10;;;;;;;;;2.00;2.00;;;;;22.12;50.90;101112.28;5090795;27;55719;-67
2022/08/27 03:39:35;;;;;;;;;2.67;1.33;;;;;21.98;50.76;101101.63;5091229;28;46731;-68
2022/08/27 03:42:01;;;;;;;;;1.67;1.67;;;;;22.05;50.99;101108.75;5092149;27;45227;-67
2022/08/27 03:44:26;;;;;;;;;4.67;1.00;;;;;21.89;51.15;101089.97;5088211;28;45546;-67
2022/08/27 03:46:52;;;;;;;;;3.33;2.00;;;;;21.99;51.28;101117.00;5090985;27;49401;-68
2022/08/27 03:49:20;;;;;;;;;3.00;2.00;;;;;21.93;51.24;101114.38;5092595;28;45002;-68
2022/08/27 03:51:45;;;;;;;;;5.33;3.33;;;;;21.85;51.37;101112.69;5091849;28;45129;-67
2022/08/27 03:54:11;;;;;;;;;2.67;1.67;;;;;21.65;51.69;101084.88;5090397;27;45671;-67
2022/08/27 03:56:38;;;;;;;;;2.00;2.00;;;;;21.82;51.68;101123.59;5090970;28;45325;-67
2022/08/27 03:59:05;;;;;;;;;3.33;2.00;;;;;21.36;51.58;101034.47;5090538;28;45200;-68
2022/08/27 04:01:31;;;;;;;;;3.67;1.00;;;;;21.70;51.85;101108.34;5091933;28;45100;-68
2022/08/27 04:03:56;;;;;;;;;1.67;1.67;;;;;21.70;51.88;101110.19;5089699;27;45224;-67
2022/08/27 04:06:22;;;;;;;;;1.33;1.33;;;;;21.75;51.91;101113.75;5090597;28;45148;-67
2022/08/27 04:08:47;;;;;;;;;5.67;2.33;;;;;21.59;51.95;101084.97;5089633;28;45118;-68
2022/08/27 04:11:12;;;;;;;;;3.00;3.00;;;;;21.68;51.76;101106.59;5089929;28;45129;-67
2022/08/27 04:13:38;;;;;;;;;1.33;1.33;;;;;21.67;51.96;101105.69;5089102;27;50895;-67
2022/08/27 04:16:04;;;;;;;;;7.33;5.00;;;;;21.74;51.96;101114.66;5090495;28;45050;-67
2022/08/27 04:18:29;;;;;;;;;2.33;2.33;;;;;21.56;52.00;101079.56;5091112;28;45480;-66
2022/08/27 04:20:55;;;;;;;;;3.33;2.00;;;;;21.73;51.72;101099.28;5088868;28;45834;-67
2022/08/27 04:23:21;;;;;;;;;1.00;1.00;;;;;21.75;51.69;101108.31;5089505;28;45745;-68
2022/08/27 04:25:46;;;;;;;;;3.00;2.00;;;;;21.61;51.79;101091.28;5090213;27;45277;-67
2022/08/27 04:28:13;;;;;;;;;2.00;2.00;;;;;21.65;51.67;101093.03;5089406;27;45050;-66
2022/08/27 04:30:40;;;;;;;;;3.67;2.00;;;;;21.65;51.85;101106.63;5083645;28;44934;-67
2022/08/27 04:33:06;;;;;;;;;3.67;2.00;;;;;21.60;52.07;101101.25;5086465;28;46068;-67
2022/08/27 04:35:31;;;;;;;;;3.33;3.33;;;;;21.60;51.90;101100.38;5089066;27;45087;-67
2022/08/27 04:37:57;;;;;;;;;4.00;4.00;;;;;21.60;51.82;101098.53;5090270;28;45209;-68
2022/08/27 04:41:18;;;;;;;;;4.00;4.00;;;;;21.24;51.72;101034.66;5089194;27;45429;-67
2022/08/27 04:43:07;;;;;;;;;2.33;2.33;;;;;21.37;52.01;101068.03;5082778;28;46081;-68
2022/08/27 04:45:33;;;;;;;;;1.33;1.33;;;;;21.61;51.76;101102.16;5084381;27;44925;-67
2022/08/27 04:47:58;;;;;;;;;2.00;2.00;;;;;21.51;51.60;101082.34;5089232;28;48608;-67
2022/08/27 04:50:23;;;;;;;;;5.00;2.33;;;;;21.61;51.88;101100.31;5091026;27;45161;-68
2022/08/27 04:52:49;;;;;;;;;4.00;2.00;;;;;21.54;51.97;101104.03;5089896;27;55798;-68
2022/08/27 04:55:14;;;;;;;;;6.67;3.33;;;;;21.57;51.93;101104.00;5090963;27;45031;-67
2022/08/27 04:57:39;;;;;;;;;4.00;2.00;;;;;21.53;51.80;101099.50;5089087;27;45483;-67
2022/08/27 05:00:07;;;;;;;;;2.33;2.33;;;;;21.50;51.95;101086.00;5090238;28;45338;-67
2022/08/27 05:02:34;;;;;;;;;2.00;2.00;;;;;21.53;51.83;101102.25;5090554;27;45701;-67
2022/08/27 05:04:59;;;;;;;;;3.33;3.33;;;;;21.48;52.20;101102.31;5089541;27;45170;-68
2022/08/27 05:07:24;;;;;;;;;1.00;1.00;;;;;21.38;51.96;101091.53;5090023;27;51085;-66
2022/08/27 05:09:51;;;;;;;;;3.33;1.33;;;;;21.40;52.23;101097.84;5089396;28;45076;-66
2022/08/27 05:12:16;;;;;;;;;3.00;3.00;;;;;21.38;52.15;101108.72;5089892;27;45159;-67
2022/08/27 05:14:41;;;;;;;;;2.00;2.00;;;;;21.34;52.19;101112.44;5088931;28;45043;-68
2022/08/27 05:17:07;;;;;;;;;5.00;2.00;;;;;21.25;52.28;101108.00;5089245;28;52953;-67
2022/08/27 05:19:32;;;;;;;;;3.33;3.33;;;;;21.20;52.34;101101.75;5088675;27;45213;-69
2022/08/27 05:21:57;;;;;;;;;3.00;2.00;;;;;21.29;52.45;101120.63;5088146;28;47365;-68
2022/08/27 05:24:23;;;;;;;;;4.00;3.00;;;;;21.23;52.31;101114.38;5087868;28;55533;-68
2022/08/27 05:26:49;;;;;;;;;7.33;2.67;;;;;21.25;52.57;101132.47;5088554;28;45224;-68
2022/08/27 05:29:15;;;;;;;;;2.67;1.00;;;;;21.14;52.49;101127.16;5089617;28;45373;-68
2022/08/27 05:31:41;;;;;;;;;0.67;0.67;;;;;21.21;52.49;101137.97;5088523;28;45504;-68
2022/08/27 05:34:08;;;;;;;;;5.00;4.00;;;;;21.22;52.89;101143.38;5087948;28;45228;-68
2022/08/27 05:36:34;;;;;;;;;2.00;1.67;;;;;21.25;53.04;101140.63;5089201;28;45056;-68
2022/08/27 05:39:03;;;;;;;;;2.33;2.33;;;;;21.31;52.63;101147.78;5085314;27;45201;-66
2022/08/27 05:41:30;;;;;;;;;4.00;3.33;;;;;21.34;52.38;101142.31;5084403;28;46103;-68
2022/08/27 05:43:58;;;;;;;;;5.00;2.00;;;;;21.38;52.21;101144.06;5088160;28;45382;-67
2022/08/27 05:46:25;;;;;;;;;0.00;0.00;;;;;21.33;52.09;101137.78;5090411;27;45134;-66
2022/08/27 05:48:54;;;;;;;;;2.00;2.00;;;;;21.40;52.07;101136.81;5091939;28;44904;-67
2022/08/27 05:51:32;;;;;;;;;2.33;2.33;;;;;21.23;52.45;101111.66;5089263;27;45364;-68
2022/08/27 05:54:01;;;;;;;;;2.00;2.00;;;;;21.36;52.35;101140.47;5090324;28;45252;-68
2022/08/27 05:56:28;;;;;;;;;3.67;2.00;;;;;21.38;52.16;101133.19;5090430;28;45216;-68
2022/08/27 06:01:43;;;;;;;;;3.00;3.00;;;;;21.26;52.15;101123.38;5090699;28;45716;-68
2022/08/27 06:04:09;;;;;;;;;5.67;2.67;;;;;21.22;52.61;101129.78;5091433;28;44960;-68
2022/08/27 06:06:40;;;;;;;;;2.33;2.33;;;;;21.18;52.54;101130.72;5090290;28;45316;-69
2022/08/27 06:09:07;;;;;;;;;3.67;3.00;;;;;21.16;52.54;101132.56;5091976;27;45336;-68
2022/08/27 06:11:33;;;;;;;;;3.00;2.00;;;;;20.99;52.98;101111.91;5093421;28;45727;-68
2022/08/27 06:13:59;;;;;;;;;4.33;3.00;;;;;21.18;52.29;101130.72;5095084;28;45469;-68
2022/08/27 06:16:24;;;;;;;;;2.00;2.00;;;;;21.17;52.55;101129.84;5094252;27;52781;-67
2022/08/27 06:18:49;;;;;;;;;4.67;3.00;;;;;21.09;52.53;101117.25;5094926;27;45109;-68
2022/08/27 06:21:18;;;;;;;;;3.00;3.00;;;;;21.15;52.43;101131.69;5091703;27;45582;-68
2022/08/27 06:23:44;;;;;;;;;3.00;2.00;;;;;21.15;52.14;101134.41;5094339;28;45190;-67
2022/08/27 06:26:13;;;;;;;;;6.00;6.00;;;;;21.02;52.82;101123.66;5092725;28;45144;-68
2022/08/27 06:28:41;;;;;;;;;6.67;4.33;;;;;21.10;52.60;101132.63;5094555;28;45093;-66
2022/08/27 06:31:21;;;;;;;;;5.33;4.00;;;;;21.14;52.49;101134.41;5092372;28;46073;-67
2022/08/27 06:33:46;;;;;;;;;3.33;2.67;;;;;21.06;52.29;101115.47;5094493;28;45137;-68
2022/08/27 06:36:15;;;;;;;;;14.67;8.00;;;;;21.12;52.12;101120.84;5092070;28;45161;-68
2022/08/27 06:38:43;;;;;;;;;3.67;2.00;;;;;21.25;52.23;101147.84;5093522;27;45195;-66
2022/08/27 06:41:11;;;;;;;;;4.67;3.67;;;;;21.12;52.38;101120.84;5092805;28;47517;-68
2022/08/27 06:43:39;;;;;;;;;6.33;2.67;;;;;21.26;52.27;101146.94;5092604;28;45024;-68
2022/08/27 06:46:07;;;;;;;;;4.67;4.67;;;;;21.05;52.48;101112.75;5091589;27;45296;-67
2022/08/27 06:48:32;;;;;;;;;7.33;3.00;;;;;21.19;52.73;101154.28;5094622;27;45559;-66
2022/08/27 06:50:58;;;;;;;;;4.67;3.67;;;;;21.20;52.33;101150.66;5094259;28;45212;-68
2022/08/27 06:53:24;;;;;;;;;3.67;3.67;;;;;21.30;52.43;101154.13;5094087;27;45153;-69
2022/08/27 06:55:50;;;;;;;;;3.33;2.00;;;;;21.32;52.22;101152.31;5092117;27;45167;-67
2022/08/27 06:58:17;;;;;;;;;3.00;3.00;;;;;21.40;52.25;101157.66;5093372;27;44969;-68
2022/08/27 07:00:44;;;;;;;;;5.67;4.00;;;;;21.47;52.30;101160.31;5093528;27;46199;-68
2022/08/27 07:03:10;;;;;;;;;3.67;3.00;;;;;21.52;51.92;101163.00;5092892;28;45212;-66
2022/08/27 07:05:37;;;;;;;;;6.00;3.00;;;;;21.50;52.26;101162.13;5092242;27;45067;-69
2022/08/27 07:08:03;;;;;;;;;6.00;4.67;;;;;21.32;51.71;101134.19;5092353;28;45123;-69
2022/08/27 07:10:29;;;;;;;;;5.33;4.33;;;;;21.39;52.08;101153.16;5093294;27;45353;-66
2022/08/27 07:12:55;;;;;;;;;4.00;4.00;;;;;21.42;51.98;101144.97;5090326;27;45095;-65
2022/08/27 07:15:21;;;;;;;;;4.00;3.00;;;;;21.59;51.66;101172.84;5093764;27;45110;-65
2022/08/27 07:17:46;;;;;;;;;5.33;4.00;;;;;21.52;51.80;101150.28;5092620;27;45365;-67
2022/08/27 07:20:13;;;;;;;;;4.00;4.00;;;;;21.60;51.46;101154.75;5091343;27;45641;-67
2022/08/27 07:22:40;;;;;;;;;4.33;4.00;;;;;21.69;51.68;101157.31;5082860;27;45433;-66
2022/08/27 07:25:08;;;;;;;;;4.00;4.00;;;;;21.74;51.26;101166.31;5090030;27;45483;-69
2022/08/27 07:27:34;;;;;;;;;7.67;5.00;;;;;21.77;51.61;101177.16;5089924;27;45531;-64
2022/08/27 07:30:00;;;;;;;;;6.67;4.00;;;;;21.75;51.20;101162.69;5082231;28;46347;-68
2022/08/27 07:32:25;;;;;;;;;7.00;6.33;;;;;21.89;51.29;101167.94;5090273;28;45297;-66
2022/08/27 07:34:51;;;;;;;;;9.00;6.00;;;;;21.83;51.28;101152.59;5091080;27;45262;-64
2022/08/27 07:37:16;;;;;;;;;5.67;4.33;;;;;21.84;51.44;101146.22;5090602;28;45641;-67
2022/08/27 07:39:41;;;;;;;;;7.00;4.00;;;;;22.02;50.90;101171.38;5091198;27;53869;-68
2022/08/27 07:44:50;;;;;;;;;7.67;6.00;;;;;22.13;50.72;101174.84;5089225;28;45133;-68
2022/08/27 07:47:16;;;;;;;;;4.00;4.00;;;;;22.21;50.48;101172.91;5092394;27;45153;-65
2022/08/27 07:49:42;;;;;;;;;4.00;4.00;;;;;22.32;50.22;101166.44;5091405;28;45115;-68
2022/08/27 07:52:07;;;;;;;;;5.00;5.00;;;;;22.24;50.13;101148.38;5090516;28;60264;-65
2022/08/27 07:54:33;;;;;;;;;6.33;6.00;;;;;22.42;50.17;101166.28;5092116;27;45137;-66
2022/08/27 07:56:58;;;;;;;;;8.00;3.00;;;;;22.50;50.06;101168.88;5090415;27;45138;-65
2022/08/27 07:59:24;;;;;;;;;6.67;5.67;;;;;22.59;49.76;101170.56;5090096;27;45278;-65
2022/08/27 08:01:49;;;;;;;;;10.67;5.33;;;;;22.67;49.56;101164.97;5086530;28;45170;-65
2022/08/27 08:04:15;;;;;;;;;7.67;6.33;;;;;22.60;49.62;101151.47;5092249;28;45140;-64
2022/08/27 08:06:40;;;;;;;;;4.00;4.00;;;;;22.82;49.33;101176.50;5093566;28;45142;-65
2022/08/27 08:09:07;;;;;;;;;4.00;4.00;;;;;22.85;49.11;101170.13;5091534;27;45595;-66
2022/08/27 08:11:32;;;;;;;;;6.00;6.00;;;;;22.93;49.01;101168.16;5092000;28;45061;-65
2022/08/27 08:13:59;;;;;;;;;7.00;5.00;;;;;23.04;48.78;101169.78;5092412;27;44909;-68
2022/08/27 08:16:24;;;;;;;;;6.67;5.00;;;;;23.14;48.72;101175.03;5091677;28;45113;-64
2022/08/27 08:18:50;;;;;;;;;11.67;6.67;;;;;23.20;48.47;101182.22;5091977;28;45071;-64
2022/08/27 08:21:15;;;;;;;;;3.33;3.33;;;;;23.15;48.71;101178.69;5091195;27;45192;-66
2022/08/27 08:23:42;;;;;;;;;3.00;3.00;;;;;23.17;48.55;101166.81;5092716;28;45338;-66
2022/08/27 08:26:09;;;;;;;;;5.00;5.00;;;;;23.27;48.19;101169.38;5090501;28;44901;-65
2022/08/27 08:28:35;;;;;;;;;5.33;4.00;;;;;22.97;47.78;101109.03;5087989;28;46635;-65
2022/08/27 08:31:00;;;;;;;;;7.67;4.33;;;;;23.47;47.68;101179.88;5085367;28;45132;-66
2022/08/27 08:33:28;;;;;;;;;6.00;4.33;;;;;23.47;47.60;101177.16;5090152;27;45514;-66
2022/08/27 08:35:53;;;;;;;;;7.67;6.67;;;;;23.47;47.13;101180.75;5091162;28;45090;-67
2022/08/27 08:38:19;;;;;;;;;3.00;3.00;;;;;23.32;46.65;101159.25;5089138;27;45477;-66
2022/08/27 08:40:49;;;;;;;;;3.00;3.00;;;;;23.54;46.43;101176.06;5084876;28;46417;-65
2022/08/27 08:43:26;;;;;;;;;4.67;4.67;;;;;23.53;46.50;101163.38;5090151;28;45124;-68
2022/08/27 08:45:54;;;;;;;;;5.00;4.33;;;;;23.60;46.22;101159.59;5089437;28;45011;-67
2022/08/27 08:48:22;;;;;;;;;3.33;3.33;;;;;23.79;46.05;101173.75;5089201;27;45319;-66
2022/08/27 08:50:56;;;;;;;;;6.00;5.00;;;;;23.66;46.08;101140.38;5091574;27;45614;-66
2022/08/27 08:53:43;;;;;;;;;5.00;3.33;;;;;23.92;45.73;101175.31;5091768;27;44918;-64
2022/08/27 08:56:20;;;;;;;;;2.67;2.67;;;;;24.01;45.48;101170.56;5086628;28;45188;-67
2022/08/27 08:58:58;;;;;;;;;6.00;4.33;;;;;24.07;45.35;101170.41;5092382;28;45214;-66
2022/08/27 09:01:26;;;;;;;;;5.00;4.67;;;;;24.18;45.57;101167.44;5091862;28;45215;-66
2022/08/27 09:04:01;;;;;;;;;4.00;4.00;;;;;24.29;44.63;101176.28;5091910;28;45157;-66
2022/08/27 09:06:47;;;;;;;;;2.67;2.67;;;;;24.37;44.11;101167.88;5087600;28;45252;-67
2022/08/27 09:09:18;;;;;;;;;5.33;3.00;;;;;24.35;43.82;101158.84;5081108;27;45593;-65
2022/08/27 09:11:59;;;;;;;;;3.00;3.00;;;;;24.49;43.22;101172.19;5090859;28;45070;-67
2022/08/27 09:14:27;;;;;;;;;3.00;2.00;;;;;24.58;43.44;101174.69;5090361;27;45416;-66
2022/08/27 09:16:53;;;;;;;;;3.00;2.67;;;;;24.64;41.79;101188.22;5075507;28;45447;-67
2022/08/27 09:19:20;;;;;;;;;6.00;4.33;;;;;24.69;41.60;101189.00;5073005;28;60992;-67
2022/08/27 09:22:09;;;;;;;;;4.33;4.33;;;;;24.77;40.45;101189.69;5085666;28;45469;-68
2022/08/27 09:25:03;;;;;;;;;8.00;6.00;;;;;24.82;41.46;101174.06;5073643;28;45519;-67
2022/08/27 09:27:30;;;;;;;;;9.67;5.00;;;;;24.84;41.44;101164.00;5071904;27;45425;-66
2022/08/27 09:29:56;;;;;;;;;5.67;5.67;;;;;25.01;41.25;101177.22;5077003;28;45329;-66
2022/08/27 09:32:30;;;;;;;;;5.00;3.00;;;;;24.96;40.74;101156.41;5089088;28;45148;-68
2022/08/27 09:35:02;;;;;;;;;5.33;4.33;;;;;25.17;39.90;101169.50;5091932;28;45091;-67
2022/08/27 09:37:31;;;;;;;;;4.67;3.00;;;;;25.22;39.48;101171.22;5087839;27;45050;-68
2022/08/27 09:40:06;;;;;;;;;3.33;3.33;;;;;25.23;39.92;101171.16;5088848;27;45373;-68
2022/08/27 09:42:42;;;;;;;;;6.33;4.00;;;;;25.15;38.99;101154.09;5088983;28;45123;-67
2022/08/27 09:45:13;;;;;;;;;5.67;4.00;;;;;25.35;38.76;101181.78;5088248;28;45241;-68
2022/08/27 09:47:51;;;;;;;;;7.00;5.00;;;;;25.32;38.47;101165.47;5087449;28;45257;-68
2022/08/27 09:50:22;;;;;;;;;6.00;3.00;;;;;25.44;38.36;101175.19;5082888;28;45850;-66
2022/08/27 09:52:57;;;;;;;;;4.00;4.00;;;;;25.53;38.34;101176.75;5087762;27;45706;-66
2022/08/27 09:55:43;;;;;;;;;4.00;2.00;;;;;25.59;37.99;101172.91;5087942;27;45415;-67
2022/08/27 09:58:20;;;;;;;;;4.00;3.00;;;;;25.70;38.15;101181.72;5090308;28;45262;-66
2022/08/27 10:00:47;;;;;;;;;5.33;4.00;;;;;25.73;38.20;101179.78;5089703;27;45499;-67
2022/08/27 10:03:12;;;;;;;;;3.33;3.33;;;;;25.63;38.46;101178.25;5089059;28;45103;-67
2022/08/27 10:05:43;;;;;;;;;9.67;5.00;;;;;25.67;38.96;101173.59;5080584;27;45319;-65
2022/08/27 10:08:24;;;;;;;;;5.67;2.67;;;;;25.70;39.18;101171.66;5089387;28;45275;-68
2022/08/27 10:11:03;;;;;;;;;5.00;4.33;;;;;25.60;38.95;101137.31;5085000;27;45379;-68
2022/08/27 10:13:55;;;;;;;;;5.00;4.33;;;;;25.88;39.00;101183.88;5088855;28;45103;-64
2022/08/27 10:16:34;;;;;;;;;4.67;4.67;;;;;25.92;37.25;101179.25;5082580;28;44917;-65
2022/08/27 10:19:31;;;;;;;;;3.67;3.67;;;;;25.94;36.70;101175.50;5090853;28;45278;-67
2022/08/27 10:22:06;;;;;;;;;11.67;11.00;;;;;25.90;36.88;101164.69;5089297;28;45725;-67
2022/08/27 10:24:52;;;;;;;;;2.00;2.00;;;;;26.07;36.82;101176.06;5089982;28;45428;-66
2022/08/27 10:27:32;;;;;;;;;3.00;3.00;;;;;26.16;36.74;101168.50;5083648;28;45137;-68
2022/08/27 10:30:00;;;;;;;;;4.00;4.00;;;;;26.21;37.11;101159.16;5089812;28;45309;-67
2022/08/27 10:32:53;;;;;;;;;3.00;3.00;;;;;26.31;36.73;101167.97;5082072;28;45426;-66
2022/08/27 10:35:22;;;;;;;;;4.33;4.33;;;;;26.33;37.13;101163.34;5086899;27;45126;-64
2022/08/27 10:38:21;;;;;;;;;5.00;2.33;;;;;26.34;36.49;101159.66;5087132;28;45348;-65
2022/08/27 10:41:00;;;;;;;;;3.67;3.67;;;;;26.44;35.94;101163.88;5083929;28;45464;-66
2022/08/27 10:43:56;;;;;;;;;4.00;4.00;;;;;26.42;35.84;101153.94;5085798;28;46759;-67
2022/08/27 10:46:49;;;;;;;;;2.33;2.33;;;;;26.48;35.64;101153.72;5082275;27;45295;-65
2022/08/27 10:49:44;;;;;;;;;4.00;4.00;;;;;26.49;35.03;101152.78;5087043;27;45213;-66
2022/08/27 10:52:39;;;;;;;;;5.67;5.00;;;;;26.51;35.64;101158.22;5090468;27;45247;-65
2022/08/27 10:55:29;;;;;;;;;6.33;4.33;;;;;26.57;35.35;101155.28;5070071;28;46006;-66
2022/08/27 10:58:16;;;;;;;;;9.00;7.33;;;;;26.64;35.15;101135.84;5084945;28;45329;-67
2022/08/27 11:00:49;;;;;;;;;3.67;3.67;;;;;26.65;35.24;101136.75;5091150;27;45151;-67
2022/08/27 11:03:40;;;;;;;;;4.67;3.67;;;;;26.70;31.83;101150.31;5081400;28;45368;-67
2022/08/27 11:06:22;;;;;;;;;4.00;2.33;;;;;26.63;32.63;101135.88;5091181;28;45219;-66
2022/08/27 11:08:54;;;;;;;;;3.67;3.67;;;;;26.64;33.75;101132.22;5092346;28;45222;-67
2022/08/27 11:11:35;;;;;;;;;3.67;3.67;;;;;26.63;33.52;101136.81;5091608;28;45170;-65
2022/08/27 11:14:05;;;;;;;;;4.67;4.67;;;;;26.70;34.24;101142.09;5087810;27;45761;-64
2022/08/27 11:16:40;;;;;;;;;3.33;3.00;;;;;26.73;33.56;101137.38;5084438;27;45836;-65
2022/08/27 11:19:25;;;;;;;;;4.00;4.00;;;;;26.62;34.06;101120.38;5081359;27;45250;-65
2022/08/27 11:22:00;;;;;;;;;2.00;2.00;;;;;26.67;33.81;101121.16;5078402;27;45284;-67
2022/08/27 11:24:34;;;;;;;;;4.33;4.33;;;;;26.38;33.94;101075.53;5077986;27;45698;-65
2022/08/27 11:27:04;;;;;;;;;4.67;3.67;;;;;26.59;33.96;101102.19;5083657;27;45923;-63
2022/08/27 11:29:35;;;;;;;;;3.00;3.00;;;;;26.71;35.15;101121.94;5083963;28;45452;-64
2022/08/27 11:32:26;;;;;;;;;4.00;2.00;;;;;26.33;33.26;101050.13;5073541;28;45466;-65
2022/08/27 11:34:59;;;;;;;;;6.00;4.33;;;;;26.59;32.88;101095.81;5070469;27;45437;-66
2022/08/27 11:38:05;;;;;;;;;3.00;3.00;;;;;26.69;33.07;101112.88;5067020;27;46223;-64
2022/08/27 11:40:48;;;;;;;;;3.33;2.33;;;;;26.66;32.86;101111.13;5077728;27;45464;-65
2022/08/27 11:43:19;;;;;;;;;3.00;2.00;;;;;26.40;32.70;101076.38;5084966;27;45144;-66
2022/08/27 11:45:58;;;;;;;;;3.67;3.67;;;;;26.46;33.04;101114.53;5084110;27;45653;-67
2022/08/27 11:48:30;;;;;;;;;7.33;3.00;;;;;26.46;33.09;101117.25;5078022;27;45321;-65